x

Western Prince William Sound (46081) Weather Station

8:50am - Wed 27th Jul 2016 All times are UTC.

  • Wind
    20mph, 25mph gusts
  • Sea Temp 59°f
  • Air Temp 55°f
  • Sea Pressure 1013.6mb

More Historic Weather Station data

Upgrade to MSW Pro to gain access to the past 30 days of data for over 8000 Wavebouys and Weather Stations around the globe.

Join Pro

Comparision Forecast

View Surf forecast
   
Wed 07/27 8:50am  -   -   -  20 25 mph 1013.6mb 59f 55f
2:50am 0.3ft  -  3s 18 20 mph 1013.3mb 59f 55f
1:50am 0.3ft  -  3s 11 13 mph 1013.5mb 59f 55f
12:50am 0.3ft  -  4s 4
mph
1013.7mb 59f 55f
Tue 07/26 11:50pm  -   -  3s 7 9 mph 1013.7mb 58f 55f
10:50pm 0.3ft  -  3s 4
mph
1013.6mb 57f 56f
9:50pm  -   -  3s  -  2 mph 1013.5mb 58f 56f
8:50pm  -   -  3s 4
mph
1013.3mb 57f 55f
7:50pm 0.3ft  -  3s 2 4 mph 1013.4mb 59f 56f
6:50pm 0.3ft  -  2s 7 9 mph 1013.3mb 58f 55f
5:50pm 0.7ft  -  2s 4 7 mph 1013.6mb 58f 55f
4:50pm 1ft 2s 3s 9
mph
1013.6mb 58f 54f
3:50pm 1ft 3s 3s 11 13 mph 1013.5mb 58f 54f
2:50pm 1.3ft 3s 3s 13 16 mph 1013.6mb 58f 54f
1:50pm 1.3ft 3s 3s 16 18 mph 1013.9mb 58f 54f
12:50pm 1.6ft 3s 3s 16 18 mph 1014.1mb 58f 54f
11:50am 1.6ft 3s 3s 20 22 mph 1014.5mb 58f 53f
10:50am 1.6ft 3s 3s 18 25 mph 1014.7mb 58f 55f
9:50am 1.6ft 3s 3s 20 22 mph 1015.1mb 58f 54f
8:50am 2ft 3s 3s 11 16 mph 1015.3mb 58f 56f
7:50am 2ft 3s 3s 16 18 mph 1015mb 58f 55f
6:50am 1.6ft 3s 3s 11 16 mph 1015mb 58f 56f
5:50am 2ft 3s 3s 11 20 mph 1014.7mb 58f 55f
4:50am 1.3ft 3s 3s 20 22 mph 1013.9mb 59f 55f
3:50am 1ft 3s 3s 18 20 mph 1013.7mb 59f 55f
2:50am 0.7ft  -  3s 13 16 mph 1013.6mb 59f 57f
1:50am 1ft 3s 3s 20 25 mph 1013mb 59f 57f
12:50am 1ft 3s 3s 18 22 mph 1012.8mb 59f 57f
Mon 07/25 11:50pm 1.6ft 3s 3s 18 22 mph 1012.4mb 60f 57f
10:50pm 1.6ft 3s 3s 18 22 mph 1011.8mb 60f 54f
9:50pm 2.5ft 3s 3s 20 25 mph 1011.2mb 60f 53f
8:50pm 2ft 3s 3s 22 25 mph 1010.9mb 60f 54f
7:50pm 2ft 3s 3s 22 27 mph 1010.2mb 59f 54f
6:50pm 2.5ft 3s 3s 22 25 mph 1009.8mb 59f 54f
5:50pm 2.5ft 3s 3s 22 27 mph 1009.1mb 60f 54f
4:50pm 2.5ft 4s 3s 22 29 mph 1008.5mb 60f 54f
3:50pm 2.5ft 3s 3s 25 29 mph 1007.9mb 60f 54f
2:50pm 2.5ft 3s 3s 18 22 mph 1007.5mb 61f 54f
1:50pm 1.6ft 3s 3s 18 22 mph 1007.3mb 60f 54f
12:50pm 1.3ft 3s 3s 18 20 mph 1007.4mb 60f 55f
11:50am 1.6ft 3s 3s 18 22 mph 1007.7mb 59f 54f
10:50am 1.6ft 3s 3s 20 22 mph 1007.8mb 58f 54f
9:50am 2.5ft 3s 3s 20 25 mph 1007.8mb 59f 53f
8:50am 2.5ft 3s 3s 22 27 mph 1007.6mb 59f 53f
7:50am 2.5ft 3s 3s 22 29 mph 1007.4mb 59f 53f
6:50am 2.5ft 4s 3s 20 25 mph 1007.3mb 59f 54f
5:50am 1.6ft 3s 3s 13 20 mph 1007.1mb 60f 56f
4:50am 2ft 3s 3s 22 27 mph 1006.2mb 60f 57f
3:50am 2ft 3s 3s 13 20 mph 1005.9mb 60f 57f
2:50am 1.3ft 3s 3s 16 22 mph 1005.4mb 60f 58f
1:50am 1ft 3s 3s 9 13 mph 1005.4mb 59f 58f
12:50am 1.3ft 3s 3s 13 20 mph 1004.8mb 58f 58f
Sun 07/24 11:50pm 1.6ft 3s 3s 11 22 mph 1004.8mb 57f 55f
10:50pm 2ft 3s 3s 20 22 mph 1004.3mb 57f 59f
9:50pm 2ft 3s 3s 11 27 mph 1004.5mb 58f 55f
8:50pm 2ft 3s 3s 11 18 mph 1004.5mb 58f 56f
7:50pm 1.6ft 3s 3s 16 18 mph 1004.3mb 58f 55f
6:50pm 1.6ft 3s 3s 11 16 mph 1004.3mb 58f 57f
5:50pm 1.3ft 3s 3s 18 22 mph 1003.9mb 58f 59f
4:50pm 1.3ft 3s 3s 16 18 mph 1003.5mb 58f 59f
3:50pm 1.3ft 3s 3s 13 16 mph 1003.2mb 58f 60f
2:50pm 2ft 3s 3s 13 16 mph 1003.2mb 58f 60f
1:50pm 1.3ft 3s 3s 16 25 mph 1003.1mb 58f 56f
12:50pm 0.7ft  -  3s 16 18 mph 1003.1mb 58f 55f
11:50am 0.3ft  -  3s 9 11 mph 1003.5mb 58f 58f
10:50am 0.7ft  -  3s 7 9 mph 1003.4mb 58f 59f
9:50am  -   -  2s 4 7 mph 1003.2mb 58f 57f
8:50am  -   -  2s 7 11 mph 1003mb 58f 57f
7:50am  -   -  3s 7 9 mph 1002.6mb 58f 57f
6:50am  -   -  3s 7
mph
1002.2mb 58f 58f
5:50am 0.3ft  -  3s 4 7 mph 1001.7mb 57f 58f
4:50am 0.3ft  -  2s 11
mph
1001.1mb 57f 60f
3:50am 0.3ft  -  2s 9 11 mph 1000.7mb 58f 59f
2:50am 0.7ft  -  2s 7 11 mph 1000.4mb 58f 61f
1:50am 0.7ft  -  3s 7 11 mph 1000.1mb 60f 61f
12:50am 0.7ft  -  3s 9 16 mph 999.7mb 61f 63f
Sat 07/23 11:50pm 0.7ft  -  2s 7 9 mph 999.5mb 59f 62f
10:50pm 0.7ft  -  3s 7 11 mph 999.4mb 58f 63f
9:50pm 0.7ft  -  3s 9
mph
999.5mb 58f 58f
8:50pm 0.7ft  -  3s 9 13 mph 999.2mb 58f 57f
7:50pm  -   -   -  4 9 mph 999.3mb 57f 59f
6:50pm 0.7ft  -  3s 7 11 mph 999.5mb 57f 58f
5:50pm 0.3ft  -  3s 4 9 mph 999.5mb 56f 59f
4:50pm 0.3ft  -  3s 2 4 mph 999.4mb 56f 55f
3:50pm 0.3ft  -  3s 2 4 mph 999.4mb 55f 53f
2:50pm 0.3ft  -  2s  -  2 mph 999.9mb 56f 52f
1:50pm 0.3ft  -  2s 2
mph
999.9mb 61f 54f
12:50pm 0.7ft  -  2s 2 4 mph 1000mb 61f 54f
11:50am 0.7ft  -  2s 13
mph
1000.1mb 60f 53f
10:50am 0.7ft  -  2s 11 13 mph 1000.5mb 60f 53f
9:50am 0.7ft  -  2s 16 18 mph 1000.3mb 58f 54f